sensor_id;sensor_type;location;lat;lon;timestamp;P1;durP1;ratioP1;P2;durP2;ratioP2
22786;SDS011;63134;52.020;4.714;2023-02-28T00:02:10;10.27;;;2.80;;
22786;SDS011;63134;52.020;4.714;2023-02-28T00:04:55;10.95;;;3.65;;
22786;SDS011;63134;52.020;4.714;2023-02-28T00:07:45;9.05;;;2.80;;
22786;SDS011;63134;52.020;4.714;2023-02-28T00:10:31;7.95;;;3.22;;
22786;SDS011;63134;52.020;4.714;2023-02-28T00:13:17;6.50;;;2.70;;
22786;SDS011;63134;52.020;4.714;2023-02-28T00:16:03;7.45;;;3.20;;
22786;SDS011;63134;52.020;4.714;2023-02-28T00:18:51;6.90;;;2.90;;
22786;SDS011;63134;52.020;4.714;2023-02-28T00:21:47;5.75;;;2.63;;
22786;SDS011;63134;52.020;4.714;2023-02-28T00:24:36;6.80;;;2.88;;
22786;SDS011;63134;52.020;4.714;2023-02-28T00:27:23;7.97;;;2.35;;
22786;SDS011;63134;52.020;4.714;2023-02-28T00:30:10;10.43;;;2.85;;
22786;SDS011;63134;52.020;4.714;2023-02-28T00:33:00;6.15;;;2.78;;
22786;SDS011;63134;52.020;4.714;2023-02-28T00:35:46;6.93;;;2.72;;
22786;SDS011;63134;52.020;4.714;2023-02-28T00:38:32;7.93;;;2.75;;
22786;SDS011;63134;52.020;4.714;2023-02-28T00:41:20;10.60;;;2.95;;
22786;SDS011;63134;52.020;4.714;2023-02-28T00:44:06;4.70;;;2.72;;
22786;SDS011;63134;52.020;4.714;2023-02-28T00:46:51;6.47;;;3.08;;
22786;SDS011;63134;52.020;4.714;2023-02-28T00:49:41;5.68;;;2.53;;
22786;SDS011;63134;52.020;4.714;2023-02-28T00:52:28;6.97;;;2.70;;
22786;SDS011;63134;52.020;4.714;2023-02-28T00:55:14;4.53;;;2.40;;
22786;SDS011;63134;52.020;4.714;2023-02-28T00:58:01;5.43;;;2.65;;
22786;SDS011;63134;52.020;4.714;2023-02-28T01:00:46;7.40;;;2.67;;
22786;SDS011;63134;52.020;4.714;2023-02-28T01:03:35;7.35;;;2.70;;
22786;SDS011;63134;52.020;4.714;2023-02-28T01:06:20;5.78;;;2.50;;
22786;SDS011;63134;52.020;4.714;2023-02-28T01:09:06;5.57;;;2.30;;
22786;SDS011;63134;52.020;4.714;2023-02-28T01:11:52;12.25;;;2.92;;
22786;SDS011;63134;52.020;4.714;2023-02-28T01:14:37;5.82;;;2.75;;
22786;SDS011;63134;52.020;4.714;2023-02-28T01:17:25;5.68;;;2.80;;
22786;SDS011;63134;52.020;4.714;2023-02-28T01:20:18;8.95;;;2.60;;
22786;SDS011;63134;52.020;4.714;2023-02-28T01:23:04;10.43;;;2.65;;
22786;SDS011;63134;52.020;4.714;2023-02-28T01:25:51;7.70;;;3.17;;
22786;SDS011;63134;52.020;4.714;2023-02-28T01:28:37;6.70;;;2.72;;
22786;SDS011;63134;52.020;4.714;2023-02-28T01:31:23;8.85;;;2.88;;
22786;SDS011;63134;52.020;4.714;2023-02-28T01:34:08;8.95;;;2.70;;
22786;SDS011;63134;52.020;4.714;2023-02-28T01:36:54;5.10;;;2.42;;
22786;SDS011;63134;52.020;4.714;2023-02-28T01:39:39;6.95;;;2.53;;
22786;SDS011;63134;52.020;4.714;2023-02-28T01:42:25;10.02;;;3.03;;
22786;SDS011;63134;52.020;4.714;2023-02-28T01:48:07;7.80;;;2.22;;
22786;SDS011;63134;52.020;4.714;2023-02-28T01:50:53;6.88;;;2.80;;
22786;SDS011;63134;52.020;4.714;2023-02-28T01:53:46;3.65;;;2.40;;
22786;SDS011;63134;52.020;4.714;2023-02-28T01:56:34;6.38;;;3.00;;
22786;SDS011;63134;52.020;4.714;2023-02-28T01:59:33;8.45;;;3.10;;
22786;SDS011;63134;52.020;4.714;2023-02-28T02:02:25;6.80;;;2.75;;
22786;SDS011;63134;52.020;4.714;2023-02-28T02:05:12;4.05;;;2.63;;
22786;SDS011;63134;52.020;4.714;2023-02-28T02:08:08;7.95;;;3.08;;
22786;SDS011;63134;52.020;4.714;2023-02-28T02:11:03;6.82;;;2.80;;
22786;SDS011;63134;52.020;4.714;2023-02-28T02:23:20;5.68;;;2.90;;
22786;SDS011;63134;52.020;4.714;2023-02-28T02:29:53;9.95;;;2.90;;
22786;SDS011;63134;52.020;4.714;2023-02-28T02:33:03;4.32;;;2.60;;
22786;SDS011;63134;52.020;4.714;2023-02-28T02:36:18;12.38;;;3.45;;
22786;SDS011;63134;52.020;4.714;2023-02-28T02:39:21;9.80;;;3.33;;
22786;SDS011;63134;52.020;4.714;2023-02-28T02:42:25;5.38;;;3.00;;
22786;SDS011;63134;52.020;4.714;2023-02-28T02:48:05;6.75;;;2.97;;
22786;SDS011;63134;52.020;4.714;2023-02-28T02:51:01;9.70;;;3.22;;
22786;SDS011;63134;52.020;4.714;2023-02-28T02:54:02;6.50;;;3.10;;
22786;SDS011;63134;52.020;4.714;2023-02-28T02:56:53;8.50;;;3.13;;
22786;SDS011;63134;52.020;4.714;2023-02-28T02:59:43;9.07;;;3.67;;
22786;SDS011;63134;52.020;4.714;2023-02-28T03:02:29;6.78;;;3.40;;
22786;SDS011;63134;52.020;4.714;2023-02-28T03:05:21;6.95;;;3.47;;
22786;SDS011;63134;52.020;4.714;2023-02-28T03:08:13;5.55;;;3.10;;
22786;SDS011;63134;52.020;4.714;2023-02-28T03:11:00;5.53;;;3.17;;
22786;SDS011;63134;52.020;4.714;2023-02-28T03:23:23;6.22;;;2.95;;
22786;SDS011;63134;52.020;4.714;2023-02-28T03:26:23;5.75;;;3.50;;
22786;SDS011;63134;52.020;4.714;2023-02-28T03:35:33;8.30;;;3.50;;
22786;SDS011;63134;52.020;4.714;2023-02-28T03:38:24;6.65;;;3.20;;
22786;SDS011;63134;52.020;4.714;2023-02-28T03:41:30;11.13;;;3.63;;
22786;SDS011;63134;52.020;4.714;2023-02-28T03:44:22;5.30;;;3.15;;
22786;SDS011;63134;52.020;4.714;2023-02-28T03:47:13;9.60;;;3.85;;
22786;SDS011;63134;52.020;4.714;2023-02-28T03:50:10;5.22;;;3.47;;
22786;SDS011;63134;52.020;4.714;2023-02-28T03:53:19;9.40;;;3.40;;
22786;SDS011;63134;52.020;4.714;2023-02-28T03:56:18;6.70;;;3.85;;
22786;SDS011;63134;52.020;4.714;2023-02-28T04:04:59;9.82;;;4.03;;
22786;SDS011;63134;52.020;4.714;2023-02-28T04:07:46;6.28;;;3.53;;
22786;SDS011;63134;52.020;4.714;2023-02-28T04:10:32;6.45;;;4.03;;
22786;SDS011;63134;52.020;4.714;2023-02-28T04:13:23;10.90;;;4.60;;
22786;SDS011;63134;52.020;4.714;2023-02-28T04:16:13;7.78;;;4.00;;
22786;SDS011;63134;52.020;4.714;2023-02-28T04:19:18;12.35;;;4.43;;
22786;SDS011;63134;52.020;4.714;2023-02-28T04:22:03;6.88;;;4.22;;
22786;SDS011;63134;52.020;4.714;2023-02-28T04:24:49;5.85;;;3.90;;
22786;SDS011;63134;52.020;4.714;2023-02-28T04:27:40;10.68;;;4.32;;
22786;SDS011;63134;52.020;4.714;2023-02-28T04:30:32;8.40;;;3.92;;
22786;SDS011;63134;52.020;4.714;2023-02-28T04:33:19;9.20;;;3.92;;
22786;SDS011;63134;52.020;4.714;2023-02-28T04:36:07;7.30;;;4.18;;
22786;SDS011;63134;52.020;4.714;2023-02-28T04:38:54;8.40;;;4.75;;
22786;SDS011;63134;52.020;4.714;2023-02-28T04:41:39;8.73;;;4.75;;
22786;SDS011;63134;52.020;4.714;2023-02-28T04:44:25;7.22;;;4.43;;
22786;SDS011;63134;52.020;4.714;2023-02-28T04:47:13;10.52;;;4.72;;
22786;SDS011;63134;52.020;4.714;2023-02-28T04:49:58;12.40;;;4.70;;
22786;SDS011;63134;52.020;4.714;2023-02-28T04:52:44;11.93;;;4.93;;
22786;SDS011;63134;52.020;4.714;2023-02-28T04:55:29;6.97;;;5.07;;
22786;SDS011;63134;52.020;4.714;2023-02-28T04:58:15;8.80;;;4.95;;
22786;SDS011;63134;52.020;4.714;2023-02-28T05:01:01;8.68;;;5.20;;
22786;SDS011;63134;52.020;4.714;2023-02-28T05:03:49;10.60;;;5.50;;
22786;SDS011;63134;52.020;4.714;2023-02-28T05:06:36;11.50;;;5.15;;
22786;SDS011;63134;52.020;4.714;2023-02-28T05:09:22;9.05;;;5.03;;
22786;SDS011;63134;52.020;4.714;2023-02-28T05:12:08;9.85;;;5.40;;
22786;SDS011;63134;52.020;4.714;2023-02-28T05:14:54;9.27;;;5.28;;
22786;SDS011;63134;52.020;4.714;2023-02-28T05:17:39;9.05;;;5.35;;
22786;SDS011;63134;52.020;4.714;2023-02-28T05:20:25;11.52;;;5.80;;
22786;SDS011;63134;52.020;4.714;2023-02-28T05:23:12;10.43;;;5.47;;
22786;SDS011;63134;52.020;4.714;2023-02-28T05:25:58;8.50;;;5.03;;
22786;SDS011;63134;52.020;4.714;2023-02-28T05:28:44;9.52;;;5.82;;
22786;SDS011;63134;52.020;4.714;2023-02-28T05:31:29;13.00;;;6.10;;
22786;SDS011;63134;52.020;4.714;2023-02-28T05:34:15;11.20;;;5.75;;
22786;SDS011;63134;52.020;4.714;2023-02-28T05:37:01;13.00;;;5.45;;
22786;SDS011;63134;52.020;4.714;2023-02-28T05:39:46;9.13;;;5.90;;
22786;SDS011;63134;52.020;4.714;2023-02-28T05:42:32;17.55;;;6.70;;
22786;SDS011;63134;52.020;4.714;2023-02-28T05:45:18;6.85;;;5.38;;
22786;SDS011;63134;52.020;4.714;2023-02-28T05:48:03;12.90;;;6.03;;
22786;SDS011;63134;52.020;4.714;2023-02-28T05:50:49;10.55;;;5.82;;
22786;SDS011;63134;52.020;4.714;2023-02-28T05:53:34;12.25;;;5.75;;
22786;SDS011;63134;52.020;4.714;2023-02-28T05:56:23;14.55;;;5.55;;
22786;SDS011;63134;52.020;4.714;2023-02-28T05:59:08;9.48;;;5.55;;
22786;SDS011;63134;52.020;4.714;2023-02-28T06:01:54;7.90;;;4.60;;
22786;SDS011;63134;52.020;4.714;2023-02-28T06:04:40;6.90;;;3.83;;
22786;SDS011;63134;52.020;4.714;2023-02-28T06:07:26;6.47;;;3.40;;
22786;SDS011;63134;52.020;4.714;2023-02-28T06:10:12;7.80;;;3.78;;
22786;SDS011;63134;52.020;4.714;2023-02-28T06:13:02;9.60;;;3.55;;
22786;SDS011;63134;52.020;4.714;2023-02-28T06:15:48;5.03;;;3.20;;
22786;SDS011;63134;52.020;4.714;2023-02-28T06:18:33;6.20;;;3.13;;
22786;SDS011;63134;52.020;4.714;2023-02-28T06:21:19;6.65;;;3.85;;
22786;SDS011;63134;52.020;4.714;2023-02-28T06:24:07;5.93;;;3.53;;
22786;SDS011;63134;52.020;4.714;2023-02-28T06:26:55;4.45;;;3.20;;
22786;SDS011;63134;52.020;4.714;2023-02-28T06:29:43;8.02;;;3.83;;
22786;SDS011;63134;52.020;4.714;2023-02-28T06:32:29;7.78;;;3.63;;
22786;SDS011;63134;52.020;4.714;2023-02-28T06:35:17;6.57;;;3.85;;
22786;SDS011;63134;52.020;4.714;2023-02-28T06:38:02;7.35;;;3.80;;
22786;SDS011;63134;52.020;4.714;2023-02-28T06:40:53;7.30;;;4.00;;
22786;SDS011;63134;52.020;4.714;2023-02-28T06:43:40;7.93;;;4.28;;
22786;SDS011;63134;52.020;4.714;2023-02-28T06:46:26;4.50;;;3.35;;
22786;SDS011;63134;52.020;4.714;2023-02-28T06:49:12;10.10;;;4.93;;
22786;SDS011;63134;52.020;4.714;2023-02-28T06:51:57;8.32;;;4.40;;
22786;SDS011;63134;52.020;4.714;2023-02-28T06:54:43;8.63;;;4.47;;
22786;SDS011;63134;52.020;4.714;2023-02-28T06:57:29;7.90;;;3.78;;
22786;SDS011;63134;52.020;4.714;2023-02-28T07:00:15;8.82;;;4.55;;
22786;SDS011;63134;52.020;4.714;2023-02-28T07:03:01;12.23;;;5.05;;
22786;SDS011;63134;52.020;4.714;2023-02-28T07:05:46;7.57;;;4.38;;
22786;SDS011;63134;52.020;4.714;2023-02-28T07:08:41;13.27;;;5.35;;
22786;SDS011;63134;52.020;4.714;2023-02-28T07:11:27;11.75;;;4.40;;
22786;SDS011;63134;52.020;4.714;2023-02-28T07:14:14;8.73;;;4.95;;
22786;SDS011;63134;52.020;4.714;2023-02-28T07:16:59;10.20;;;5.50;;
22786;SDS011;63134;52.020;4.714;2023-02-28T07:19:48;9.00;;;5.90;;
22786;SDS011;63134;52.020;4.714;2023-02-28T07:22:34;6.95;;;5.10;;
22786;SDS011;63134;52.020;4.714;2023-02-28T07:25:21;11.20;;;5.75;;
22786;SDS011;63134;52.020;4.714;2023-02-28T07:28:10;7.43;;;5.90;;
22786;SDS011;63134;52.020;4.714;2023-02-28T07:31:02;6.70;;;5.78;;
22786;SDS011;63134;52.020;4.714;2023-02-28T07:33:48;7.65;;;5.60;;
22786;SDS011;63134;52.020;4.714;2023-02-28T07:36:38;9.90;;;5.53;;
22786;SDS011;63134;52.020;4.714;2023-02-28T07:39:23;8.43;;;5.72;;
22786;SDS011;63134;52.020;4.714;2023-02-28T07:42:11;6.35;;;5.25;;
22786;SDS011;63134;52.020;4.714;2023-02-28T07:44:57;7.15;;;5.05;;
22786;SDS011;63134;52.020;4.714;2023-02-28T07:47:44;11.52;;;5.47;;
22786;SDS011;63134;52.020;4.714;2023-02-28T07:50:30;12.52;;;5.75;;
22786;SDS011;63134;52.020;4.714;2023-02-28T07:53:16;9.05;;;6.22;;
22786;SDS011;63134;52.020;4.714;2023-02-28T07:56:02;11.07;;;5.43;;
22786;SDS011;63134;52.020;4.714;2023-02-28T07:58:49;7.07;;;5.07;;
22786;SDS011;63134;52.020;4.714;2023-02-28T08:01:34;11.90;;;5.30;;
22786;SDS011;63134;52.020;4.714;2023-02-28T08:04:23;7.30;;;5.30;;
22786;SDS011;63134;52.020;4.714;2023-02-28T08:07:08;6.40;;;4.93;;
22786;SDS011;63134;52.020;4.714;2023-02-28T08:09:57;8.35;;;5.53;;
22786;SDS011;63134;52.020;4.714;2023-02-28T08:12:43;6.25;;;5.15;;
22786;SDS011;63134;52.020;4.714;2023-02-28T08:15:29;6.43;;;5.38;;
22786;SDS011;63134;52.020;4.714;2023-02-28T08:18:14;10.55;;;5.70;;
22786;SDS011;63134;52.020;4.714;2023-02-28T08:21:05;11.07;;;6.35;;
22786;SDS011;63134;52.020;4.714;2023-02-28T08:23:54;10.25;;;5.57;;
22786;SDS011;63134;52.020;4.714;2023-02-28T08:26:41;9.40;;;5.97;;
22786;SDS011;63134;52.020;4.714;2023-02-28T08:29:29;10.75;;;6.38;;
22786;SDS011;63134;52.020;4.714;2023-02-28T08:32:15;10.18;;;6.25;;
22786;SDS011;63134;52.020;4.714;2023-02-28T08:35:13;10.55;;;5.65;;
22786;SDS011;63134;52.020;4.714;2023-02-28T08:37:59;8.73;;;5.45;;
22786;SDS011;63134;52.020;4.714;2023-02-28T08:40:44;12.90;;;6.88;;
22786;SDS011;63134;52.020;4.714;2023-02-28T08:43:33;11.15;;;6.47;;
22786;SDS011;63134;52.020;4.714;2023-02-28T08:46:22;10.52;;;6.25;;
22786;SDS011;63134;52.020;4.714;2023-02-28T08:49:09;8.57;;;5.90;;
22786;SDS011;63134;52.020;4.714;2023-02-28T08:51:55;9.82;;;6.30;;
22786;SDS011;63134;52.020;4.714;2023-02-28T08:54:41;8.73;;;6.40;;
22786;SDS011;63134;52.020;4.714;2023-02-28T08:57:27;11.45;;;6.80;;
22786;SDS011;63134;52.020;4.714;2023-02-28T09:00:14;10.80;;;6.90;;
22786;SDS011;63134;52.020;4.714;2023-02-28T09:03:00;10.20;;;7.18;;
22786;SDS011;63134;52.020;4.714;2023-02-28T09:05:55;13.95;;;7.00;;
22786;SDS011;63134;52.020;4.714;2023-02-28T09:08:42;12.15;;;7.28;;
22786;SDS011;63134;52.020;4.714;2023-02-28T09:11:28;11.35;;;6.78;;
22786;SDS011;63134;52.020;4.714;2023-02-28T09:14:13;10.95;;;6.47;;
22786;SDS011;63134;52.020;4.714;2023-02-28T09:17:03;12.82;;;5.70;;
22786;SDS011;63134;52.020;4.714;2023-02-28T09:22:34;9.23;;;5.60;;
22786;SDS011;63134;52.020;4.714;2023-02-28T09:25:20;8.73;;;4.75;;
22786;SDS011;63134;52.020;4.714;2023-02-28T09:28:08;9.60;;;4.90;;
22786;SDS011;63134;52.020;4.714;2023-02-28T09:30:54;10.32;;;5.07;;
22786;SDS011;63134;52.020;4.714;2023-02-28T09:33:40;10.18;;;5.00;;
22786;SDS011;63134;52.020;4.714;2023-02-28T09:36:26;8.60;;;5.65;;
22786;SDS011;63134;52.020;4.714;2023-02-28T09:39:28;6.45;;;4.85;;
22786;SDS011;63134;52.020;4.714;2023-02-28T09:42:18;6.10;;;4.93;;
22786;SDS011;63134;52.020;4.714;2023-02-28T09:45:33;10.55;;;4.88;;
22786;SDS011;63134;52.020;4.714;2023-02-28T09:48:23;14.45;;;5.32;;
22786;SDS011;63134;52.020;4.714;2023-02-28T09:54:31;9.48;;;5.78;;
22786;SDS011;63134;52.020;4.714;2023-02-28T10:06:17;6.85;;;5.15;;
22786;SDS011;63134;52.020;4.714;2023-02-28T10:09:08;9.40;;;5.10;;
22786;SDS011;63134;52.020;4.714;2023-02-28T10:12:03;8.43;;;4.53;;
22786;SDS011;63134;52.020;4.714;2023-02-28T10:14:51;7.72;;;4.57;;
22786;SDS011;63134;52.020;4.714;2023-02-28T10:17:41;7.28;;;4.15;;
22786;SDS011;63134;52.020;4.714;2023-02-28T10:20:44;6.95;;;3.78;;
22786;SDS011;63134;52.020;4.714;2023-02-28T10:23:32;5.75;;;3.70;;
22786;SDS011;63134;52.020;4.714;2023-02-28T10:26:20;7.90;;;3.53;;
22786;SDS011;63134;52.020;4.714;2023-02-28T10:29:09;6.93;;;3.55;;
22786;SDS011;63134;52.020;4.714;2023-02-28T10:31:55;7.07;;;3.60;;
22786;SDS011;63134;52.020;4.714;2023-02-28T10:38:05;6.10;;;3.08;;
22786;SDS011;63134;52.020;4.714;2023-02-28T10:41:08;4.82;;;2.65;;
22786;SDS011;63134;52.020;4.714;2023-02-28T10:44:11;10.85;;;3.20;;
22786;SDS011;63134;52.020;4.714;2023-02-28T10:47:12;5.65;;;3.13;;
22786;SDS011;63134;52.020;4.714;2023-02-28T10:50:01;4.32;;;2.88;;
22786;SDS011;63134;52.020;4.714;2023-02-28T10:52:50;4.85;;;3.47;;
22786;SDS011;63134;52.020;4.714;2023-02-28T10:55:39;4.88;;;3.10;;
22786;SDS011;63134;52.020;4.714;2023-02-28T10:58:26;4.35;;;2.67;;
22786;SDS011;63134;52.020;4.714;2023-02-28T11:01:15;2.55;;;2.35;;
22786;SDS011;63134;52.020;4.714;2023-02-28T11:04:17;4.78;;;2.22;;
22786;SDS011;63134;52.020;4.714;2023-02-28T11:07:25;2.42;;;2.22;;
22786;SDS011;63134;52.020;4.714;2023-02-28T11:10:26;3.60;;;2.30;;
22786;SDS011;63134;52.020;4.714;2023-02-28T11:13:20;4.30;;;1.98;;
22786;SDS011;63134;52.020;4.714;2023-02-28T11:16:11;4.60;;;1.77;;
22786;SDS011;63134;52.020;4.714;2023-02-28T11:18:57;3.58;;;2.15;;
22786;SDS011;63134;52.020;4.714;2023-02-28T11:21:48;2.53;;;2.30;;
22786;SDS011;63134;52.020;4.714;2023-02-28T11:24:43;3.60;;;1.88;;
22786;SDS011;63134;52.020;4.714;2023-02-28T11:30:26;4.40;;;1.83;;
22786;SDS011;63134;52.020;4.714;2023-02-28T11:36:15;2.78;;;2.10;;
22786;SDS011;63134;52.020;4.714;2023-02-28T11:39:15;2.95;;;2.10;;
22786;SDS011;63134;52.020;4.714;2023-02-28T11:45:47;4.10;;;2.38;;
22786;SDS011;63134;52.020;4.714;2023-02-28T11:48:51;3.05;;;2.00;;
22786;SDS011;63134;52.020;4.714;2023-02-28T11:51:54;2.72;;;1.73;;
22786;SDS011;63134;52.020;4.714;2023-02-28T11:55:07;2.40;;;1.60;;
22786;SDS011;63134;52.020;4.714;2023-02-28T12:01:14;1.73;;;1.50;;
22786;SDS011;63134;52.020;4.714;2023-02-28T12:07:31;2.60;;;1.48;;
22786;SDS011;63134;52.020;4.714;2023-02-28T12:10:42;6.00;;;1.58;;
22786;SDS011;63134;52.020;4.714;2023-02-28T12:16:47;5.60;;;1.70;;
22786;SDS011;63134;52.020;4.714;2023-02-28T12:19:41;1.45;;;1.23;;
22786;SDS011;63134;52.020;4.714;2023-02-28T12:25:39;2.42;;;1.35;;
22786;SDS011;63134;52.020;4.714;2023-02-28T12:28:34;1.95;;;1.30;;
22786;SDS011;63134;52.020;4.714;2023-02-28T12:31:25;2.25;;;1.38;;
22786;SDS011;63134;52.020;4.714;2023-02-28T12:34:16;1.90;;;1.30;;
22786;SDS011;63134;52.020;4.714;2023-02-28T12:37:17;2.15;;;1.23;;
22786;SDS011;63134;52.020;4.714;2023-02-28T12:40:21;4.40;;;1.27;;
22786;SDS011;63134;52.020;4.714;2023-02-28T12:43:08;4.22;;;1.33;;
22786;SDS011;63134;52.020;4.714;2023-02-28T12:46:02;2.45;;;1.17;;
22786;SDS011;63134;52.020;4.714;2023-02-28T12:49:10;4.55;;;1.30;;
22786;SDS011;63134;52.020;4.714;2023-02-28T12:52:01;2.58;;;1.45;;
22786;SDS011;63134;52.020;4.714;2023-02-28T12:54:50;3.28;;;1.50;;
22786;SDS011;63134;52.020;4.714;2023-02-28T12:57:45;2.33;;;1.40;;
22786;SDS011;63134;52.020;4.714;2023-02-28T13:00:43;2.63;;;1.30;;
22786;SDS011;63134;52.020;4.714;2023-02-28T13:10:21;1.67;;;1.50;;
22786;SDS011;63134;52.020;4.714;2023-02-28T13:13:11;1.80;;;1.20;;
22786;SDS011;63134;52.020;4.714;2023-02-28T13:16:10;4.45;;;1.50;;
22786;SDS011;63134;52.020;4.714;2023-02-28T13:19:07;2.63;;;1.25;;
22786;SDS011;63134;52.020;4.714;2023-02-28T13:21:55;3.13;;;1.42;;
22786;SDS011;63134;52.020;4.714;2023-02-28T13:24:49;5.50;;;1.50;;
22786;SDS011;63134;52.020;4.714;2023-02-28T13:27:41;2.45;;;1.30;;
22786;SDS011;63134;52.020;4.714;2023-02-28T13:36:37;2.53;;;1.60;;
22786;SDS011;63134;52.020;4.714;2023-02-28T13:47:56;2.28;;;1.27;;
22786;SDS011;63134;52.020;4.714;2023-02-28T13:50:47;2.65;;;1.23;;
22786;SDS011;63134;52.020;4.714;2023-02-28T13:53:43;2.38;;;1.42;;
22786;SDS011;63134;52.020;4.714;2023-02-28T13:56:56;2.67;;;1.30;;
22786;SDS011;63134;52.020;4.714;2023-02-28T14:06:26;3.47;;;1.33;;
22786;SDS011;63134;52.020;4.714;2023-02-28T14:15:40;4.10;;;1.50;;
22786;SDS011;63134;52.020;4.714;2023-02-28T14:18:32;2.97;;;1.48;;
22786;SDS011;63134;52.020;4.714;2023-02-28T14:21:23;2.72;;;1.40;;
22786;SDS011;63134;52.020;4.714;2023-02-28T14:24:25;3.00;;;1.23;;
22786;SDS011;63134;52.020;4.714;2023-02-28T14:27:36;1.38;;;1.00;;
22786;SDS011;63134;52.020;4.714;2023-02-28T14:31:07;5.75;;;1.83;;
22786;SDS011;63134;52.020;4.714;2023-02-28T14:37:24;2.42;;;1.60;;
22786;SDS011;63134;52.020;4.714;2023-02-28T14:40:21;2.78;;;1.65;;
22786;SDS011;63134;52.020;4.714;2023-02-28T14:43:22;2.55;;;1.75;;
22786;SDS011;63134;52.020;4.714;2023-02-28T14:46:10;3.67;;;2.00;;
22786;SDS011;63134;52.020;4.714;2023-02-28T14:48:58;4.18;;;2.00;;
22786;SDS011;63134;52.020;4.714;2023-02-28T14:51:44;4.43;;;1.70;;
22786;SDS011;63134;52.020;4.714;2023-02-28T14:54:30;3.38;;;2.28;;
22786;SDS011;63134;52.020;4.714;2023-02-28T14:57:25;6.85;;;3.97;;
22786;SDS011;63134;52.020;4.714;2023-02-28T15:00:23;4.78;;;2.03;;
22786;SDS011;63134;52.020;4.714;2023-02-28T15:03:21;3.38;;;1.50;;
22786;SDS011;63134;52.020;4.714;2023-02-28T15:06:21;3.03;;;1.80;;
22786;SDS011;63134;52.020;4.714;2023-02-28T15:09:08;4.63;;;1.65;;
22786;SDS011;63134;52.020;4.714;2023-02-28T15:12:01;1.50;;;1.27;;
22786;SDS011;63134;52.020;4.714;2023-02-28T15:14:47;3.55;;;1.40;;
22786;SDS011;63134;52.020;4.714;2023-02-28T15:17:36;5.65;;;1.33;;
22786;SDS011;63134;52.020;4.714;2023-02-28T15:20:21;2.15;;;1.55;;
22786;SDS011;63134;52.020;4.714;2023-02-28T15:23:14;4.38;;;1.40;;
22786;SDS011;63134;52.020;4.714;2023-02-28T15:26:01;3.08;;;1.67;;
22786;SDS011;63134;52.020;4.714;2023-02-28T15:28:49;2.03;;;1.40;;
22786;SDS011;63134;52.020;4.714;2023-02-28T15:31:43;2.05;;;1.30;;
22786;SDS011;63134;52.020;4.714;2023-02-28T15:34:42;2.70;;;1.58;;
22786;SDS011;63134;52.020;4.714;2023-02-28T15:37:33;3.40;;;1.50;;
22786;SDS011;63134;52.020;4.714;2023-02-28T15:40:26;4.95;;;1.88;;
22786;SDS011;63134;52.020;4.714;2023-02-28T15:46:15;2.75;;;1.83;;
22786;SDS011;63134;52.020;4.714;2023-02-28T15:49:01;2.97;;;1.65;;
22786;SDS011;63134;52.020;4.714;2023-02-28T15:51:50;3.83;;;2.00;;
22786;SDS011;63134;52.020;4.714;2023-02-28T15:54:38;3.85;;;2.17;;
22786;SDS011;63134;52.020;4.714;2023-02-28T15:57:25;2.60;;;1.55;;
22786;SDS011;63134;52.020;4.714;2023-02-28T16:00:13;2.42;;;1.85;;
22786;SDS011;63134;52.020;4.714;2023-02-28T16:03:01;5.05;;;2.30;;
22786;SDS011;63134;52.020;4.714;2023-02-28T16:11:52;2.88;;;1.88;;
22786;SDS011;63134;52.020;4.714;2023-02-28T16:14:39;3.20;;;1.80;;
22786;SDS011;63134;52.020;4.714;2023-02-28T16:17:33;2.28;;;1.58;;
22786;SDS011;63134;52.020;4.714;2023-02-28T16:20:24;4.30;;;2.20;;
22786;SDS011;63134;52.020;4.714;2023-02-28T16:23:11;8.52;;;2.30;;
22786;SDS011;63134;52.020;4.714;2023-02-28T16:25:57;3.10;;;1.90;;
22786;SDS011;63134;52.020;4.714;2023-02-28T16:28:43;3.90;;;2.55;;
22786;SDS011;63134;52.020;4.714;2023-02-28T16:31:28;4.22;;;2.05;;
22786;SDS011;63134;52.020;4.714;2023-02-28T16:34:19;2.95;;;2.25;;
22786;SDS011;63134;52.020;4.714;2023-02-28T16:37:13;5.55;;;2.63;;
22786;SDS011;63134;52.020;4.714;2023-02-28T16:40:24;4.63;;;2.22;;
22786;SDS011;63134;52.020;4.714;2023-02-28T16:46:30;5.78;;;2.40;;
22786;SDS011;63134;52.020;4.714;2023-02-28T16:52:06;6.05;;;2.63;;
22786;SDS011;63134;52.020;4.714;2023-02-28T16:54:51;5.32;;;2.70;;
22786;SDS011;63134;52.020;4.714;2023-02-28T16:57:39;5.55;;;2.88;;
22786;SDS011;63134;52.020;4.714;2023-02-28T17:00:26;7.78;;;3.33;;
22786;SDS011;63134;52.020;4.714;2023-02-28T17:03:22;10.52;;;5.35;;
22786;SDS011;63134;52.020;4.714;2023-02-28T17:06:19;10.18;;;5.50;;
22786;SDS011;63134;52.020;4.714;2023-02-28T17:09:25;5.28;;;3.10;;
22786;SDS011;63134;52.020;4.714;2023-02-28T17:12:25;4.88;;;3.30;;
22786;SDS011;63134;52.020;4.714;2023-02-28T17:15:14;4.22;;;3.40;;
22786;SDS011;63134;52.020;4.714;2023-02-28T17:18:04;5.05;;;3.03;;
22786;SDS011;63134;52.020;4.714;2023-02-28T17:20:50;6.03;;;3.45;;
22786;SDS011;63134;52.020;4.714;2023-02-28T17:23:36;5.75;;;4.47;;
22786;SDS011;63134;52.020;4.714;2023-02-28T17:26:21;4.95;;;3.42;;
22786;SDS011;63134;52.020;4.714;2023-02-28T17:29:19;4.00;;;3.05;;
22786;SDS011;63134;52.020;4.714;2023-02-28T17:32:09;3.83;;;2.88;;
22786;SDS011;63134;52.020;4.714;2023-02-28T17:35:02;4.18;;;3.10;;
22786;SDS011;63134;52.020;4.714;2023-02-28T17:37:48;5.90;;;4.07;;
22786;SDS011;63134;52.020;4.714;2023-02-28T17:40:33;7.55;;;3.67;;
22786;SDS011;63134;52.020;4.714;2023-02-28T17:43:19;6.38;;;3.55;;
22786;SDS011;63134;52.020;4.714;2023-02-28T17:46:04;5.10;;;3.25;;
22786;SDS011;63134;52.020;4.714;2023-02-28T17:48:51;9.35;;;7.07;;
22786;SDS011;63134;52.020;4.714;2023-02-28T17:51:37;10.73;;;5.85;;
22786;SDS011;63134;52.020;4.714;2023-02-28T17:54:23;10.40;;;6.35;;
22786;SDS011;63134;52.020;4.714;2023-02-28T17:57:11;9.05;;;5.13;;
22786;SDS011;63134;52.020;4.714;2023-02-28T18:00:00;10.52;;;4.30;;
22786;SDS011;63134;52.020;4.714;2023-02-28T18:02:55;7.80;;;4.90;;
22786;SDS011;63134;52.020;4.714;2023-02-28T18:05:40;6.00;;;4.20;;
22786;SDS011;63134;52.020;4.714;2023-02-28T18:08:26;5.38;;;3.72;;
22786;SDS011;63134;52.020;4.714;2023-02-28T18:11:11;5.13;;;4.20;;
22786;SDS011;63134;52.020;4.714;2023-02-28T18:14:29;10.60;;;4.25;;
22786;SDS011;63134;52.020;4.714;2023-02-28T18:17:15;5.75;;;3.95;;
22786;SDS011;63134;52.020;4.714;2023-02-28T18:20:03;12.25;;;4.65;;
22786;SDS011;63134;52.020;4.714;2023-02-28T18:22:50;6.20;;;4.55;;
22786;SDS011;63134;52.020;4.714;2023-02-28T18:25:36;6.60;;;4.78;;
22786;SDS011;63134;52.020;4.714;2023-02-28T18:28:24;6.57;;;4.88;;
22786;SDS011;63134;52.020;4.714;2023-02-28T18:31:16;10.60;;;4.65;;
22786;SDS011;63134;52.020;4.714;2023-02-28T18:34:03;10.23;;;5.35;;
22786;SDS011;63134;52.020;4.714;2023-02-28T18:36:50;9.65;;;4.85;;
22786;SDS011;63134;52.020;4.714;2023-02-28T18:39:41;6.53;;;5.50;;
22786;SDS011;63134;52.020;4.714;2023-02-28T18:42:28;5.88;;;4.53;;
22786;SDS011;63134;52.020;4.714;2023-02-28T18:45:17;7.63;;;5.43;;
22786;SDS011;63134;52.020;4.714;2023-02-28T18:48:03;6.38;;;5.70;;
22786;SDS011;63134;52.020;4.714;2023-02-28T18:50:49;9.77;;;6.13;;
22786;SDS011;63134;52.020;4.714;2023-02-28T18:53:35;9.82;;;6.60;;
22786;SDS011;63134;52.020;4.714;2023-02-28T18:56:22;11.63;;;6.50;;
22786;SDS011;63134;52.020;4.714;2023-02-28T18:59:08;11.15;;;6.53;;
22786;SDS011;63134;52.020;4.714;2023-02-28T19:01:55;11.77;;;5.95;;
22786;SDS011;63134;52.020;4.714;2023-02-28T19:04:42;10.23;;;6.05;;
22786;SDS011;63134;52.020;4.714;2023-02-28T19:07:29;10.82;;;6.30;;
22786;SDS011;63134;52.020;4.714;2023-02-28T19:10:14;12.18;;;6.63;;
22786;SDS011;63134;52.020;4.714;2023-02-28T19:13:00;10.25;;;7.00;;
22786;SDS011;63134;52.020;4.714;2023-02-28T19:15:48;9.65;;;7.50;;
22786;SDS011;63134;52.020;4.714;2023-02-28T19:18:36;11.00;;;7.00;;